sensor_id;sensor_type;location;lat;lon;timestamp;pressure;altitude;pressure_sealevel;temperature;humidity
47636;BME280;33364;50.766;15.338;2023-04-06T00:00:59;95212.38;;;-3.34;74.12
47636;BME280;33364;50.766;15.338;2023-04-06T00:03:25;95217.16;;;-3.47;73.52
47636;BME280;33364;50.766;15.338;2023-04-06T00:05:51;95224.34;;;-3.59;74.12
47636;BME280;33364;50.766;15.338;2023-04-06T00:08:17;95222.66;;;-3.69;74.32
47636;BME280;33364;50.766;15.338;2023-04-06T00:10:43;95223.81;;;-3.63;74.11
47636;BME280;33364;50.766;15.338;2023-04-06T00:13:08;95227.25;;;-3.62;73.97
47636;BME280;33364;50.766;15.338;2023-04-06T00:15:34;95221.00;;;-3.70;74.26
47636;BME280;33364;50.766;15.338;2023-04-06T00:18:00;95224.22;;;-3.58;75.35
47636;BME280;33364;50.766;15.338;2023-04-06T00:20:26;95222.94;;;-3.54;74.12
47636;BME280;33364;50.766;15.338;2023-04-06T00:22:52;95219.38;;;-3.53;73.13
47636;BME280;33364;50.766;15.338;2023-04-06T00:25:17;95213.59;;;-3.46;73.72
47636;BME280;33364;50.766;15.338;2023-04-06T00:27:43;95216.94;;;-3.72;72.79
47636;BME280;33364;50.766;15.338;2023-04-06T00:30:09;95215.75;;;-3.96;73.52
47636;BME280;33364;50.766;15.338;2023-04-06T00:32:35;95214.56;;;-4.01;74.06
47636;BME280;33364;50.766;15.338;2023-04-06T00:35:05;95204.41;;;-3.95;74.25
47636;BME280;33364;50.766;15.338;2023-04-06T00:37:31;95209.09;;;-3.80;75.17
47636;BME280;33364;50.766;15.338;2023-04-06T00:39:58;95210.31;;;-3.66;73.97
47636;BME280;33364;50.766;15.338;2023-04-06T00:42:24;95198.38;;;-3.59;73.51
47636;BME280;33364;50.766;15.338;2023-04-06T00:44:58;95200.59;;;-3.46;72.92
47636;BME280;33364;50.766;15.338;2023-04-06T00:47:25;95199.97;;;-3.40;72.61
47636;BME280;33364;50.766;15.338;2023-04-06T00:49:51;95194.31;;;-3.36;71.27
47636;BME280;33364;50.766;15.338;2023-04-06T00:52:18;95195.41;;;-3.46;72.66
47636;BME280;33364;50.766;15.338;2023-04-06T00:54:44;95207.28;;;-3.62;71.41
47636;BME280;33364;50.766;15.338;2023-04-06T00:57:11;95198.63;;;-3.71;72.77
47636;BME280;33364;50.766;15.338;2023-04-06T00:59:38;95207.28;;;-3.62;72.11
47636;BME280;33364;50.766;15.338;2023-04-06T01:02:04;95205.00;;;-3.83;71.82
47636;BME280;33364;50.766;15.338;2023-04-06T01:04:30;95204.13;;;-4.10;72.12
47636;BME280;33364;50.766;15.338;2023-04-06T01:06:56;95202.81;;;-4.24;73.09
47636;BME280;33364;50.766;15.338;2023-04-06T01:09:22;95201.66;;;-4.11;74.18
47636;BME280;33364;50.766;15.338;2023-04-06T01:11:48;95202.41;;;-4.01;73.83
47636;BME280;33364;50.766;15.338;2023-04-06T01:14:14;95200.78;;;-3.84;74.84
47636;BME280;33364;50.766;15.338;2023-04-06T01:16:40;95205.97;;;-4.02;72.22
47636;BME280;33364;50.766;15.338;2023-04-06T01:19:12;95203.06;;;-4.17;72.40
47636;BME280;33364;50.766;15.338;2023-04-06T01:21:39;95210.84;;;-3.99;74.51
47636;BME280;33364;50.766;15.338;2023-04-06T01:24:06;95201.16;;;-3.97;72.88
47636;BME280;33364;50.766;15.338;2023-04-06T01:26:33;95201.53;;;-3.92;72.99
47636;BME280;33364;50.766;15.338;2023-04-06T01:29:00;95202.09;;;-3.98;72.47
47636;BME280;33364;50.766;15.338;2023-04-06T01:31:26;95199.44;;;-4.24;72.55
47636;BME280;33364;50.766;15.338;2023-04-06T01:33:52;95195.72;;;-4.21;73.58
47636;BME280;33364;50.766;15.338;2023-04-06T01:36:18;95198.41;;;-4.13;72.84
47636;BME280;33364;50.766;15.338;2023-04-06T01:38:44;95194.25;;;-4.06;73.17
47636;BME280;33364;50.766;15.338;2023-04-06T01:41:10;95191.13;;;-4.10;73.00
47636;BME280;33364;50.766;15.338;2023-04-06T01:43:36;95192.66;;;-4.17;72.08
47636;BME280;33364;50.766;15.338;2023-04-06T01:46:02;95185.41;;;-4.31;73.05
47636;BME280;33364;50.766;15.338;2023-04-06T01:48:28;95182.81;;;-4.31;73.08
47636;BME280;33364;50.766;15.338;2023-04-06T01:50:54;95179.34;;;-4.22;73.43
47636;BME280;33364;50.766;15.338;2023-04-06T01:53:20;95183.19;;;-4.26;73.29
47636;BME280;33364;50.766;15.338;2023-04-06T01:55:46;95183.28;;;-4.18;73.66
47636;BME280;33364;50.766;15.338;2023-04-06T01:58:13;95191.78;;;-4.08;73.81
47636;BME280;33364;50.766;15.338;2023-04-06T02:00:38;95186.16;;;-4.03;71.90
47636;BME280;33364;50.766;15.338;2023-04-06T02:03:05;95185.06;;;-4.18;72.19
47636;BME280;33364;50.766;15.338;2023-04-06T02:05:31;95187.03;;;-4.12;73.47
47636;BME280;33364;50.766;15.338;2023-04-06T02:07:58;95186.56;;;-4.44;72.67
47636;BME280;33364;50.766;15.338;2023-04-06T02:10:24;95193.50;;;-4.62;73.36
47636;BME280;33364;50.766;15.338;2023-04-06T02:12:50;95196.16;;;-4.72;73.79
47636;BME280;33364;50.766;15.338;2023-04-06T02:15:16;95186.50;;;-4.80;74.07
47636;BME280;33364;50.766;15.338;2023-04-06T02:17:42;95193.19;;;-4.77;73.82
47636;BME280;33364;50.766;15.338;2023-04-06T02:20:08;95182.47;;;-4.92;73.63
47636;BME280;33364;50.766;15.338;2023-04-06T02:22:35;95188.59;;;-4.93;74.59
47636;BME280;33364;50.766;15.338;2023-04-06T02:25:01;95192.56;;;-4.99;73.89
47636;BME280;33364;50.766;15.338;2023-04-06T02:27:27;95187.69;;;-5.02;74.45
47636;BME280;33364;50.766;15.338;2023-04-06T02:29:52;95188.50;;;-5.01;74.27
47636;BME280;33364;50.766;15.338;2023-04-06T02:32:19;95186.16;;;-4.94;74.06
47636;BME280;33364;50.766;15.338;2023-04-06T02:34:44;95183.53;;;-4.85;73.93
47636;BME280;33364;50.766;15.338;2023-04-06T02:37:10;95188.19;;;-4.88;73.61
47636;BME280;33364;50.766;15.338;2023-04-06T02:39:36;95191.34;;;-4.94;74.07
47636;BME280;33364;50.766;15.338;2023-04-06T02:42:02;95184.41;;;-5.04;73.84
47636;BME280;33364;50.766;15.338;2023-04-06T02:44:27;95189.59;;;-5.04;74.31
47636;BME280;33364;50.766;15.338;2023-04-06T02:46:53;95192.13;;;-4.94;74.29
47636;BME280;33364;50.766;15.338;2023-04-06T02:49:19;95191.47;;;-4.96;74.28
47636;BME280;33364;50.766;15.338;2023-04-06T02:51:44;95191.16;;;-4.83;74.60
47636;BME280;33364;50.766;15.338;2023-04-06T02:54:10;95193.00;;;-4.66;76.02
47636;BME280;33364;50.766;15.338;2023-04-06T02:56:36;95191.97;;;-4.55;73.34
47636;BME280;33364;50.766;15.338;2023-04-06T02:59:02;95197.28;;;-4.56;73.41
47636;BME280;33364;50.766;15.338;2023-04-06T03:01:28;95195.38;;;-4.54;74.32
47636;BME280;33364;50.766;15.338;2023-04-06T03:03:53;95196.84;;;-4.52;72.39
47636;BME280;33364;50.766;15.338;2023-04-06T03:06:19;95202.47;;;-4.56;72.74
47636;BME280;33364;50.766;15.338;2023-04-06T03:08:44;95201.63;;;-4.47;73.02
47636;BME280;33364;50.766;15.338;2023-04-06T03:11:10;95201.53;;;-4.55;73.06
47636;BME280;33364;50.766;15.338;2023-04-06T03:13:37;95203.16;;;-4.27;73.00
47636;BME280;33364;50.766;15.338;2023-04-06T03:16:05;95211.63;;;-4.52;71.20
47636;BME280;33364;50.766;15.338;2023-04-06T03:18:31;95206.91;;;-4.67;73.16
47636;BME280;33364;50.766;15.338;2023-04-06T03:20:57;95204.97;;;-4.65;72.30
47636;BME280;33364;50.766;15.338;2023-04-06T03:23:23;95214.19;;;-4.80;72.42
47636;BME280;33364;50.766;15.338;2023-04-06T03:25:49;95213.84;;;-4.95;73.31
47636;BME280;33364;50.766;15.338;2023-04-06T03:28:15;95211.44;;;-5.06;73.05
47636;BME280;33364;50.766;15.338;2023-04-06T03:30:41;95213.59;;;-5.02;73.65
47636;BME280;33364;50.766;15.338;2023-04-06T03:33:07;95221.81;;;-5.16;73.31
47636;BME280;33364;50.766;15.338;2023-04-06T03:35:33;95212.72;;;-5.30;73.67
47636;BME280;33364;50.766;15.338;2023-04-06T03:37:58;95212.88;;;-5.41;74.21
47636;BME280;33364;50.766;15.338;2023-04-06T03:40:24;95216.84;;;-5.47;74.11
47636;BME280;33364;50.766;15.338;2023-04-06T03:42:50;95215.22;;;-5.58;74.40
47636;BME280;33364;50.766;15.338;2023-04-06T03:45:16;95215.34;;;-5.59;74.92
47636;BME280;33364;50.766;15.338;2023-04-06T03:47:42;95212.84;;;-5.31;75.63
47636;BME280;33364;50.766;15.338;2023-04-06T03:50:08;95215.00;;;-5.17;73.39
47636;BME280;33364;50.766;15.338;2023-04-06T03:52:34;95214.16;;;-5.08;73.41
47636;BME280;33364;50.766;15.338;2023-04-06T03:55:01;95215.09;;;-5.09;72.67
47636;BME280;33364;50.766;15.338;2023-04-06T03:57:26;95217.38;;;-4.96;72.06
47636;BME280;33364;50.766;15.338;2023-04-06T03:59:52;95217.63;;;-4.89;72.35
47636;BME280;33364;50.766;15.338;2023-04-06T04:02:17;95221.50;;;-4.93;72.29
47636;BME280;33364;50.766;15.338;2023-04-06T04:04:43;95218.44;;;-4.89;71.69
47636;BME280;33364;50.766;15.338;2023-04-06T04:07:09;95225.28;;;-4.88;72.95
47636;BME280;33364;50.766;15.338;2023-04-06T04:09:35;95226.06;;;-4.87;72.17
47636;BME280;33364;50.766;15.338;2023-04-06T04:12:00;95221.59;;;-4.85;71.91
47636;BME280;33364;50.766;15.338;2023-04-06T04:14:26;95225.41;;;-4.89;72.89
47636;BME280;33364;50.766;15.338;2023-04-06T04:16:52;95227.50;;;-5.03;71.83
47636;BME280;33364;50.766;15.338;2023-04-06T04:19:18;95219.13;;;-5.24;72.91
47636;BME280;33364;50.766;15.338;2023-04-06T04:21:46;95219.66;;;-5.21;72.07
47636;BME280;33364;50.766;15.338;2023-04-06T04:24:13;95214.25;;;-5.47;73.00
47636;BME280;33364;50.766;15.338;2023-04-06T04:26:39;95218.38;;;-5.54;73.45
47636;BME280;33364;50.766;15.338;2023-04-06T04:29:05;95212.88;;;-5.51;74.12
47636;BME280;33364;50.766;15.338;2023-04-06T04:31:31;95217.63;;;-5.37;73.55
47636;BME280;33364;50.766;15.338;2023-04-06T04:33:57;95219.91;;;-5.14;73.93
47636;BME280;33364;50.766;15.338;2023-04-06T04:36:23;95218.31;;;-5.35;73.06
47636;BME280;33364;50.766;15.338;2023-04-06T04:38:54;95227.31;;;-5.39;73.69
47636;BME280;33364;50.766;15.338;2023-04-06T04:41:19;95224.19;;;-5.42;73.20
47636;BME280;33364;50.766;15.338;2023-04-06T04:43:45;95225.03;;;-5.51;73.63
47636;BME280;33364;50.766;15.338;2023-04-06T04:46:11;95221.88;;;-5.36;74.09
47636;BME280;33364;50.766;15.338;2023-04-06T04:48:37;95219.84;;;-5.51;74.02
47636;BME280;33364;50.766;15.338;2023-04-06T04:51:04;95227.63;;;-5.71;74.70
47636;BME280;33364;50.766;15.338;2023-04-06T04:53:30;95225.84;;;-5.71;75.15
47636;BME280;33364;50.766;15.338;2023-04-06T04:55:55;95223.81;;;-5.67;75.08
47636;BME280;33364;50.766;15.338;2023-04-06T04:58:21;95232.66;;;-5.69;75.63
47636;BME280;33364;50.766;15.338;2023-04-06T05:00:47;95229.00;;;-5.57;75.70
47636;BME280;33364;50.766;15.338;2023-04-06T05:03:19;95230.44;;;-5.35;75.46
47636;BME280;33364;50.766;15.338;2023-04-06T05:05:46;95234.38;;;-5.21;74.49
47636;BME280;33364;50.766;15.338;2023-04-06T05:08:12;95231.09;;;-5.23;73.90
47636;BME280;33364;50.766;15.338;2023-04-06T05:10:37;95233.84;;;-5.44;74.78
47636;BME280;33364;50.766;15.338;2023-04-06T05:13:03;95234.03;;;-5.56;75.35
47636;BME280;33364;50.766;15.338;2023-04-06T05:15:29;95239.63;;;-5.60;75.82
47636;BME280;33364;50.766;15.338;2023-04-06T05:17:55;95232.13;;;-5.63;76.10
47636;BME280;33364;50.766;15.338;2023-04-06T05:20:21;95243.16;;;-5.61;76.87
47636;BME280;33364;50.766;15.338;2023-04-06T05:22:47;95233.47;;;-5.69;76.39
47636;BME280;33364;50.766;15.338;2023-04-06T05:25:13;95232.41;;;-5.66;76.86
47636;BME280;33364;50.766;15.338;2023-04-06T05:27:39;95233.06;;;-5.64;76.71
47636;BME280;33364;50.766;15.338;2023-04-06T05:30:06;95230.75;;;-5.67;76.96
47636;BME280;33364;50.766;15.338;2023-04-06T05:32:33;95230.47;;;-5.64;77.37
47636;BME280;33364;50.766;15.338;2023-04-06T05:34:59;95227.31;;;-5.39;78.47
47636;BME280;33364;50.766;15.338;2023-04-06T05:37:25;95228.22;;;-5.20;75.97
47636;BME280;33364;50.766;15.338;2023-04-06T05:39:51;95224.69;;;-5.19;75.67
47636;BME280;33364;50.766;15.338;2023-04-06T05:42:17;95226.22;;;-5.26;76.01
47636;BME280;33364;50.766;15.338;2023-04-06T05:44:42;95228.09;;;-5.28;76.23
47636;BME280;33364;50.766;15.338;2023-04-06T05:47:08;95234.34;;;-5.02;77.57
47636;BME280;33364;50.766;15.338;2023-04-06T05:49:34;95235.41;;;-5.04;75.88
47636;BME280;33364;50.766;15.338;2023-04-06T05:52:00;95241.78;;;-4.99;76.37
47636;BME280;33364;50.766;15.338;2023-04-06T05:54:26;95233.75;;;-4.95;76.31
47636;BME280;33364;50.766;15.338;2023-04-06T05:56:52;95228.78;;;-4.79;76.41
47636;BME280;33364;50.766;15.338;2023-04-06T05:59:18;95230.81;;;-4.73;76.51
47636;BME280;33364;50.766;15.338;2023-04-06T06:01:44;95235.25;;;-4.55;76.94
47636;BME280;33364;50.766;15.338;2023-04-06T06:04:09;95235.13;;;-4.36;77.15
47636;BME280;33364;50.766;15.338;2023-04-06T06:06:35;95226.25;;;-4.15;76.37
47636;BME280;33364;50.766;15.338;2023-04-06T06:09:02;95223.94;;;-3.91;76.09
47636;BME280;33364;50.766;15.338;2023-04-06T06:11:29;95228.44;;;-3.75;75.97
47636;BME280;33364;50.766;15.338;2023-04-06T06:13:55;95224.56;;;-3.53;75.38
47636;BME280;33364;50.766;15.338;2023-04-06T06:16:22;95230.56;;;-3.34;74.91
47636;BME280;33364;50.766;15.338;2023-04-06T06:18:47;95224.00;;;-3.20;74.52
47636;BME280;33364;50.766;15.338;2023-04-06T06:21:13;95225.06;;;-3.05;74.22
47636;BME280;33364;50.766;15.338;2023-04-06T06:23:42;95225.31;;;-2.90;73.96
47636;BME280;33364;50.766;15.338;2023-04-06T06:26:08;95220.84;;;-2.71;73.88
47636;BME280;33364;50.766;15.338;2023-04-06T06:28:33;95224.34;;;-2.54;73.26
47636;BME280;33364;50.766;15.338;2023-04-06T06:30:59;95219.06;;;-2.36;72.77
47636;BME280;33364;50.766;15.338;2023-04-06T06:33:26;95218.63;;;-2.24;73.02
47636;BME280;33364;50.766;15.338;2023-04-06T06:35:52;95219.31;;;-2.05;71.99
47636;BME280;33364;50.766;15.338;2023-04-06T06:38:17;95224.53;;;-1.89;72.49
47636;BME280;33364;50.766;15.338;2023-04-06T06:40:45;95216.75;;;-1.72;71.48
47636;BME280;33364;50.766;15.338;2023-04-06T06:43:11;95222.97;;;-1.57;71.63
47636;BME280;33364;50.766;15.338;2023-04-06T06:45:37;95220.03;;;-1.37;71.05
47636;BME280;33364;50.766;15.338;2023-04-06T06:48:02;95220.66;;;-1.19;69.87
47636;BME280;33364;50.766;15.338;2023-04-06T06:50:28;95213.94;;;-0.97;69.09
47636;BME280;33364;50.766;15.338;2023-04-06T06:52:54;95213.13;;;-0.89;68.04
47636;BME280;33364;50.766;15.338;2023-04-06T06:55:20;95208.50;;;-0.70;68.05
47636;BME280;33364;50.766;15.338;2023-04-06T06:57:45;95207.44;;;-0.45;67.01
47636;BME280;33364;50.766;15.338;2023-04-06T07:00:14;95206.00;;;-0.16;65.30
47636;BME280;33364;50.766;15.338;2023-04-06T07:02:40;95207.69;;;0.08;62.84
47636;BME280;33364;50.766;15.338;2023-04-06T07:05:06;95207.63;;;0.40;63.32
47636;BME280;33364;50.766;15.338;2023-04-06T07:07:32;95205.28;;;0.68;58.61
47636;BME280;33364;50.766;15.338;2023-04-06T07:10:00;95199.19;;;0.90;56.32
47636;BME280;33364;50.766;15.338;2023-04-06T07:12:26;95209.50;;;1.07;55.74
47636;BME280;33364;50.766;15.338;2023-04-06T07:14:52;95200.50;;;1.39;58.37
47636;BME280;33364;50.766;15.338;2023-04-06T07:17:18;95201.84;;;1.50;51.12
47636;BME280;33364;50.766;15.338;2023-04-06T07:19:44;95204.09;;;1.53;52.32
47636;BME280;33364;50.766;15.338;2023-04-06T07:22:11;95201.06;;;1.86;51.89
47636;BME280;33364;50.766;15.338;2023-04-06T07:24:37;95196.09;;;1.91;49.02
47636;BME280;33364;50.766;15.338;2023-04-06T07:27:02;95201.72;;;1.88;49.45
47636;BME280;33364;50.766;15.338;2023-04-06T07:29:28;95202.59;;;1.95;48.81
47636;BME280;33364;50.766;15.338;2023-04-06T07:31:54;95196.69;;;2.08;48.87
47636;BME280;33364;50.766;15.338;2023-04-06T07:34:21;95201.97;;;2.51;52.06
47636;BME280;33364;50.766;15.338;2023-04-06T07:36:47;95203.25;;;2.84;48.31
47636;BME280;33364;50.766;15.338;2023-04-06T07:39:13;95194.91;;;2.73;45.89
47636;BME280;33364;50.766;15.338;2023-04-06T07:41:39;95198.34;;;3.02;48.01
47636;BME280;33364;50.766;15.338;2023-04-06T07:44:05;95200.41;;;3.07;48.06
47636;BME280;33364;50.766;15.338;2023-04-06T07:46:31;95200.44;;;3.13;46.96
47636;BME280;33364;50.766;15.338;2023-04-06T07:48:58;95195.19;;;3.13;47.64
47636;BME280;33364;50.766;15.338;2023-04-06T07:51:24;95210.59;;;3.23;47.16
47636;BME280;33364;50.766;15.338;2023-04-06T07:53:52;95200.31;;;3.57;45.38
47636;BME280;33364;50.766;15.338;2023-04-06T07:56:17;95203.50;;;3.45;44.93
47636;BME280;33364;50.766;15.338;2023-04-06T07:58:43;95205.16;;;3.53;45.29
47636;BME280;33364;50.766;15.338;2023-04-06T08:01:09;95199.13;;;3.66;46.36
47636;BME280;33364;50.766;15.338;2023-04-06T08:03:36;95196.81;;;3.84;44.63
47636;BME280;33364;50.766;15.338;2023-04-06T08:06:02;95201.00;;;4.34;43.33
47636;BME280;33364;50.766;15.338;2023-04-06T08:08:28;95205.09;;;4.43;42.06
47636;BME280;33364;50.766;15.338;2023-04-06T08:10:54;95196.94;;;4.31;42.78
47636;BME280;33364;50.766;15.338;2023-04-06T08:13:20;95186.41;;;4.18;42.48
47636;BME280;33364;50.766;15.338;2023-04-06T08:15:46;95192.03;;;4.08;42.52
47636;BME280;33364;50.766;15.338;2023-04-06T08:18:12;95189.94;;;4.92;44.54
47636;BME280;33364;50.766;15.338;2023-04-06T08:20:38;95196.00;;;5.26;39.62
47636;BME280;33364;50.766;15.338;2023-04-06T08:23:05;95198.25;;;5.09;41.25
47636;BME280;33364;50.766;15.338;2023-04-06T08:25:35;95202.56;;;5.75;40.95
47636;BME280;33364;50.766;15.338;2023-04-06T08:28:02;95202.63;;;5.55;39.08
47636;BME280;33364;50.766;15.338;2023-04-06T08:30:28;95195.75;;;5.47;39.39
47636;BME280;33364;50.766;15.338;2023-04-06T08:32:54;95197.91;;;5.84;38.93
47636;BME280;33364;50.766;15.338;2023-04-06T08:35:20;95196.94;;;5.58;39.99
47636;BME280;33364;50.766;15.338;2023-04-06T08:37:46;95185.59;;;5.58;37.76
47636;BME280;33364;50.766;15.338;2023-04-06T08:40:12;95195.28;;;5.77;38.93
47636;BME280;33364;50.766;15.338;2023-04-06T08:42:46;95189.34;;;5.95;38.80
47636;BME280;33364;50.766;15.338;2023-04-06T08:45:15;95185.34;;;5.73;37.89
47636;BME280;33364;50.766;15.338;2023-04-06T08:47:42;95181.91;;;5.79;38.87
47636;BME280;33364;50.766;15.338;2023-04-06T08:50:08;95183.44;;;6.06;36.93
47636;BME280;33364;50.766;15.338;2023-04-06T08:52:34;95184.13;;;6.27;38.13
47636;BME280;33364;50.766;15.338;2023-04-06T08:55:00;95183.88;;;5.97;36.58
47636;BME280;33364;50.766;15.338;2023-04-06T08:57:26;95177.13;;;6.46;36.34
47636;BME280;33364;50.766;15.338;2023-04-06T08:59:52;95182.69;;;6.95;33.66
47636;BME280;33364;50.766;15.338;2023-04-06T09:02:20;95180.00;;;6.70;35.84
47636;BME280;33364;50.766;15.338;2023-04-06T09:04:48;95180.88;;;7.14;34.83
47636;BME280;33364;50.766;15.338;2023-04-06T09:07:15;95179.38;;;6.99;35.72
47636;BME280;33364;50.766;15.338;2023-04-06T09:09:41;95182.06;;;6.93;33.18
47636;BME280;33364;50.766;15.338;2023-04-06T09:12:29;95184.88;;;6.02;34.04
47636;BME280;33364;50.766;15.338;2023-04-06T09:14:56;95194.09;;;6.57;33.98
47636;BME280;33364;50.766;15.338;2023-04-06T09:17:27;95188.25;;;6.87;35.89
47636;BME280;33364;50.766;15.338;2023-04-06T09:19:53;95191.34;;;6.45;32.79
47636;BME280;33364;50.766;15.338;2023-04-06T09:22:20;95185.00;;;6.53;34.14
47636;BME280;33364;50.766;15.338;2023-04-06T09:24:47;95177.06;;;5.56;35.18
47636;BME280;33364;50.766;15.338;2023-04-06T09:27:14;95181.38;;;6.09;34.89
47636;BME280;33364;50.766;15.338;2023-04-06T09:29:41;95174.91;;;5.32;33.06
47636;BME280;33364;50.766;15.338;2023-04-06T09:32:08;95165.84;;;5.87;33.88
47636;BME280;33364;50.766;15.338;2023-04-06T09:34:37;95174.16;;;5.84;34.04
47636;BME280;33364;50.766;15.338;2023-04-06T09:37:16;95162.34;;;6.06;34.38
47636;BME280;33364;50.766;15.338;2023-04-06T09:39:43;95162.41;;;6.89;34.58
47636;BME280;33364;50.766;15.338;2023-04-06T09:42:10;95162.03;;;7.29;33.92
47636;BME280;33364;50.766;15.338;2023-04-06T09:44:35;95160.75;;;7.57;32.06
47636;BME280;33364;50.766;15.338;2023-04-06T09:47:05;95159.34;;;6.92;33.40
47636;BME280;33364;50.766;15.338;2023-04-06T09:49:32;95156.53;;;6.87;30.78
47636;BME280;33364;50.766;15.338;2023-04-06T09:52:00;95162.94;;;6.97;31.69
47636;BME280;33364;50.766;15.338;2023-04-06T09:54:30;95160.78;;;7.13;32.86
47636;BME280;33364;50.766;15.338;2023-04-06T09:57:24;95156.03;;;7.40;32.63
47636;BME280;33364;50.766;15.338;2023-04-06T10:00:05;95164.31;;;7.99;32.04
47636;BME280;33364;50.766;15.338;2023-04-06T10:05:45;95165.16;;;7.26;31.29
47636;BME280;33364;50.766;15.338;2023-04-06T10:08:13;95148.53;;;7.19;32.73
47636;BME280;33364;50.766;15.338;2023-04-06T10:10:39;95168.38;;;7.46;30.73
47636;BME280;33364;50.766;15.338;2023-04-06T10:13:05;95161.97;;;6.92;29.54
47636;BME280;33364;50.766;15.338;2023-04-06T10:15:31;95153.69;;;7.32;28.94
47636;BME280;33364;50.766;15.338;2023-04-06T10:17:58;95162.03;;;7.29;30.53
47636;BME280;33364;50.766;15.338;2023-04-06T10:20:43;95155.22;;;7.21;30.56
47636;BME280;33364;50.766;15.338;2023-04-06T10:23:24;95154.38;;;7.02;29.96
47636;BME280;33364;50.766;15.338;2023-04-06T10:25:56;95145.06;;;7.62;31.64
47636;BME280;33364;50.766;15.338;2023-04-06T10:28:23;95143.47;;;8.09;29.39
47636;BME280;33364;50.766;15.338;2023-04-06T10:30:49;95143.69;;;8.08;30.92
47636;BME280;33364;50.766;15.338;2023-04-06T10:33:19;95136.13;;;8.23;28.55
47636;BME280;33364;50.766;15.338;2023-04-06T10:35:45;95142.88;;;8.38;30.85
47636;BME280;33364;50.766;15.338;2023-04-06T10:38:11;95147.34;;;8.37;29.51
47636;BME280;33364;50.766;15.338;2023-04-06T10:40:41;95146.28;;;8.26;28.38
47636;BME280;33364;50.766;15.338;2023-04-06T10:43:19;95145.00;;;8.48;28.50
47636;BME280;33364;50.766;15.338;2023-04-06T10:45:54;95141.25;;;8.37;29.27
47636;BME280;33364;50.766;15.338;2023-04-06T10:48:21;95143.22;;;8.11;28.46
47636;BME280;33364;50.766;15.338;2023-04-06T10:50:49;95142.28;;;8.05;28.38
47636;BME280;33364;50.766;15.338;2023-04-06T10:55:52;95147.38;;;7.88;29.41
47636;BME280;33364;50.766;15.338;2023-04-06T10:58:19;95147.88;;;8.16;29.67
47636;BME280;33364;50.766;15.338;2023-04-06T11:00:45;95146.63;;;8.30;29.71
47636;BME280;33364;50.766;15.338;2023-04-06T11:03:12;95141.81;;;8.08;27.76
47636;BME280;33364;50.766;15.338;2023-04-06T11:05:37;95137.13;;;8.11;27.78
47636;BME280;33364;50.766;15.338;2023-04-06T11:08:03;95139.34;;;8.44;27.50
47636;BME280;33364;50.766;15.338;2023-04-06T11:10:29;95132.16;;;8.33;26.98
47636;BME280;33364;50.766;15.338;2023-04-06T11:12:56;95125.84;;;8.15;27.64
47636;BME280;33364;50.766;15.338;2023-04-06T11:15:22;95121.22;;;8.29;29.68
47636;BME280;33364;50.766;15.338;2023-04-06T11:17:49;95124.56;;;8.67;27.50
47636;BME280;33364;50.766;15.338;2023-04-06T11:20:15;95123.13;;;8.52;29.68
47636;BME280;33364;50.766;15.338;2023-04-06T11:22:52;95138.31;;;8.45;28.98
47636;BME280;33364;50.766;15.338;2023-04-06T11:25:18;95133.34;;;7.88;28.43
47636;BME280;33364;50.766;15.338;2023-04-06T11:27:46;95133.88;;;7.23;29.92
47636;BME280;33364;50.766;15.338;2023-04-06T11:30:13;95130.75;;;7.07;28.76
47636;BME280;33364;50.766;15.338;2023-04-06T11:32:40;95124.38;;;6.90;29.82
47636;BME280;33364;50.766;15.338;2023-04-06T11:35:22;95132.50;;;6.95;28.82
47636;BME280;33364;50.766;15.338;2023-04-06T11:37:52;95123.06;;;6.80;29.59
47636;BME280;33364;50.766;15.338;2023-04-06T11:40:21;95113.38;;;6.93;29.68
47636;BME280;33364;50.766;15.338;2023-04-06T11:42:55;95109.16;;;6.92;30.09
47636;BME280;33364;50.766;15.338;2023-04-06T11:45:22;95114.25;;;7.67;32.44
47636;BME280;33364;50.766;15.338;2023-04-06T11:47:59;95122.38;;;8.03;27.75
47636;BME280;33364;50.766;15.338;2023-04-06T11:50:31;95119.31;;;7.87;26.93
47636;BME280;33364;50.766;15.338;2023-04-06T11:53:01;95125.75;;;8.22;28.70
47636;BME280;33364;50.766;15.338;2023-04-06T11:55:28;95114.84;;;8.49;28.65
47636;BME280;33364;50.766;15.338;2023-04-06T11:57:54;95111.09;;;8.92;28.33
47636;BME280;33364;50.766;15.338;2023-04-06T12:00:20;95111.56;;;9.36;27.54
47636;BME280;33364;50.766;15.338;2023-04-06T12:02:48;95089.88;;;9.04;28.06
47636;BME280;33364;50.766;15.338;2023-04-06T12:05:14;95100.63;;;8.85;27.84
47636;BME280;33364;50.766;15.338;2023-04-06T12:07:40;95104.16;;;8.55;29.65
47636;BME280;33364;50.766;15.338;2023-04-06T12:10:06;95097.56;;;7.85;28.16
47636;BME280;33364;50.766;15.338;2023-04-06T12:12:32;95100.47;;;7.96;28.95
47636;BME280;33364;50.766;15.338;2023-04-06T12:14:57;95096.31;;;8.18;27.06
47636;BME280;33364;50.766;15.338;2023-04-06T12:17:24;95090.34;;;8.23;28.25
47636;BME280;33364;50.766;15.338;2023-04-06T12:19:50;95102.28;;;8.44;28.59
47636;BME280;33364;50.766;15.338;2023-04-06T12:22:17;95106.81;;;8.79;28.48
47636;BME280;33364;50.766;15.338;2023-04-06T12:24:43;95098.88;;;8.37;26.92
47636;BME280;33364;50.766;15.338;2023-04-06T12:27:09;95102.06;;;8.27;28.10
47636;BME280;33364;50.766;15.338;2023-04-06T12:29:37;95100.16;;;8.04;28.04
47636;BME280;33364;50.766;15.338;2023-04-06T12:32:03;95093.47;;;8.32;29.16
47636;BME280;33364;50.766;15.338;2023-04-06T12:34:30;95090.78;;;8.20;27.99
47636;BME280;33364;50.766;15.338;2023-04-06T12:36:56;95078.03;;;7.86;29.68
47636;BME280;33364;50.766;15.338;2023-04-06T12:39:22;95090.38;;;7.74;30.07
47636;BME280;33364;50.766;15.338;2023-04-06T12:41:48;95078.94;;;7.25;29.14
47636;BME280;33364;50.766;15.338;2023-04-06T12:44:13;95077.09;;;7.93;29.39
47636;BME280;33364;50.766;15.338;2023-04-06T12:46:39;95074.28;;;8.48;28.75
47636;BME280;33364;50.766;15.338;2023-04-06T12:49:06;95072.50;;;8.72;27.62
47636;BME280;33364;50.766;15.338;2023-04-06T12:51:31;95075.13;;;8.60;27.58
47636;BME280;33364;50.766;15.338;2023-04-06T12:53:57;95073.72;;;8.46;27.66
47636;BME280;33364;50.766;15.338;2023-04-06T12:56:23;95066.81;;;8.45;29.07
47636;BME280;33364;50.766;15.338;2023-04-06T12:58:51;95073.16;;;8.44;27.98